createdAt,value
2023-04-25T00:01:09.973Z,100507.00
2023-04-25T00:05:12.867Z,100510.75
2023-04-25T00:09:16.152Z,100518.13
2023-04-25T00:13:20.265Z,100518.19
2023-04-25T00:17:25.428Z,100525.09
2023-04-25T00:21:29.196Z,100523.22
2023-04-25T00:25:31.917Z,100536.38
2023-04-25T00:29:35.963Z,100540.09
2023-04-25T00:33:40.175Z,100544.31
2023-04-25T00:37:43.128Z,100552.03
2023-04-25T00:41:47.140Z,100550.97
2023-04-25T00:45:50.950Z,100548.50
2023-04-25T00:49:55.181Z,100543.94
2023-04-25T00:53:58.224Z,100549.78
2023-04-25T00:58:01.335Z,100551.44
2023-04-25T01:02:05.059Z,100550.78
2023-04-25T01:06:10.140Z,100542.50
2023-04-25T01:10:13.218Z,100559.97
2023-04-25T01:14:15.880Z,100574.19
2023-04-25T01:18:18.851Z,100562.16
2023-04-25T01:22:22.841Z,100558.63
2023-04-25T01:26:28.008Z,100549.91
2023-04-25T01:30:31.689Z,100568.78
2023-04-25T01:34:34.507Z,100567.28
2023-04-25T01:38:39.171Z,100579.78
2023-04-25T01:42:45.320Z,100576.22
2023-04-25T01:46:48.537Z,100569.63
2023-04-25T01:50:51.336Z,100567.13
2023-04-25T01:54:56.030Z,100568.69
2023-04-25T01:59:00.037Z,100577.28
2023-04-25T02:03:38.474Z,100580.41
2023-04-25T02:07:46.279Z,100586.88
2023-04-25T02:11:51.005Z,100583.59
2023-04-25T02:16:32.693Z,100586.28
2023-04-25T02:20:37.178Z,100591.06
2023-04-25T02:24:41.313Z,100604.16
2023-04-25T02:28:45.465Z,100607.09
2023-04-25T02:32:49.260Z,100611.44
2023-04-25T02:36:52.430Z,100622.84
2023-04-25T02:40:55.542Z,100613.13
2023-04-25T02:44:59.549Z,100618.13
2023-04-25T02:49:03.094Z,100621.28
2023-04-25T02:53:06.629Z,100628.16
2023-04-25T02:57:15.709Z,100629.22
2023-04-25T03:01:19.918Z,100644.38
2023-04-25T03:05:22.811Z,100635.25
2023-04-25T03:09:26.032Z,100638.19
2023-04-25T03:13:30.850Z,100645.13
2023-04-25T03:17:36.096Z,100648.03
2023-04-25T03:21:39.381Z,100643.06
2023-04-25T03:25:42.462Z,100646.56
2023-04-25T03:29:45.121Z,100651.75
2023-04-25T03:33:49.441Z,100651.81
2023-04-25T03:37:53.864Z,100648.28
2023-04-25T03:42:02.211Z,100657.66
2023-04-25T03:46:05.719Z,100652.44
2023-04-25T03:50:11.207Z,100653.88
2023-04-25T03:54:13.878Z,100658.66
2023-04-25T03:58:16.746Z,100665.50
2023-04-25T04:02:20.334Z,100662.78
2023-04-25T04:06:24.965Z,100667.16
2023-04-25T04:10:34.220Z,100673.19
2023-04-25T04:14:37.089Z,100681.69
2023-04-25T04:18:42.706Z,100678.81
2023-04-25T04:22:46.744Z,100676.31
2023-04-25T04:26:53.037Z,100677.00
2023-04-25T04:31:24.946Z,100685.50
2023-04-25T04:35:57.479Z,100690.88
2023-04-25T04:40:19.635Z,100695.91
2023-04-25T04:44:47.374Z,100697.09
2023-04-25T04:49:29.634Z,100706.69
2023-04-25T04:54:03.325Z,100719.34
2023-04-25T04:58:32.520Z,100715.59
2023-04-25T05:02:44.724Z,100719.53
2023-04-25T05:07:00.914Z,100718.72
2023-04-25T05:11:21.908Z,100727.25
2023-04-25T05:15:43.842Z,100723.72
2023-04-25T05:20:10.267Z,100735.50
2023-04-25T05:24:40.125Z,100753.56
2023-04-25T05:29:01.756Z,100755.03
2023-04-25T05:33:21.568Z,100765.84
2023-04-25T05:37:24.377Z,100763.31
2023-04-25T05:41:39.488Z,100751.63
2023-04-25T05:46:00.785Z,100759.09
2023-04-25T05:50:17.904Z,100759.69
2023-04-25T05:54:27.895Z,100774.22
2023-04-25T05:58:32.459Z,100777.97
2023-04-25T06:02:36.911Z,100791.88
2023-04-25T06:06:41.299Z,100790.03
2023-04-25T06:10:44.647Z,100797.47
2023-04-25T06:15:04.718Z,100804.72
2023-04-25T06:19:11.013Z,100812.00
2023-04-25T06:23:15.121Z,100807.44
2023-04-25T06:27:27.252Z,100817.38
2023-04-25T06:31:33.434Z,100822.53
2023-04-25T06:35:37.288Z,100829.38
2023-04-25T06:39:42.551Z,100825.84
2023-04-25T06:43:47.578Z,100829.53
2023-04-25T06:48:13.552Z,100830.75
2023-04-25T06:52:16.514Z,100831.28
2023-04-25T06:56:22.316Z,100838.75
2023-04-25T07:00:49.053Z,100840.38
2023-04-25T07:04:53.851Z,100842.72
2023-04-25T07:09:02.109Z,100850.44
2023-04-25T07:13:07.974Z,100850.88
2023-04-25T07:17:10.836Z,100844.50
2023-04-25T07:21:14.232Z,100853.97
2023-04-25T07:25:19.482Z,100840.78
2023-04-25T07:29:24.829Z,100839.84
2023-04-25T07:33:29.293Z,100843.78
2023-04-25T07:37:32.212Z,100845.53
2023-04-25T07:41:44.883Z,100848.84
2023-04-25T07:45:55.563Z,100858.59
2023-04-25T07:49:59.742Z,100856.28
2023-04-25T07:54:03.583Z,100866.16
2023-04-25T07:58:22.119Z,100870.03
2023-04-25T08:02:40.858Z,100869.09
2023-04-25T08:06:53.436Z,100872.16
2023-04-25T08:11:05.600Z,100873.19
2023-04-25T08:15:10.171Z,100877.25
2023-04-25T08:19:17.401Z,100900.72
2023-04-25T08:23:22.282Z,100895.22
2023-04-25T08:27:31.683Z,100896.75
2023-04-25T08:31:34.756Z,100902.66
2023-04-25T08:35:41.652Z,100914.13
2023-04-25T08:39:46.096Z,100918.72
2023-04-25T08:43:53.629Z,100924.06
2023-04-25T08:47:59.706Z,100919.94
2023-04-25T08:52:07.283Z,100932.78
2023-04-25T08:56:18.686Z,100941.06
2023-04-25T09:00:32.655Z,100944.75
2023-04-25T09:04:57.042Z,100947.00
2023-04-25T09:09:13.484Z,100951.72
2023-04-25T09:13:26.831Z,100953.06
2023-04-25T09:17:57.772Z,100960.38
2023-04-25T09:22:04.719Z,100958.97
2023-04-25T09:26:09.868Z,100967.84
2023-04-25T09:30:17.307Z,100976.25
2023-04-25T09:34:49.108Z,100968.53
2023-04-25T09:39:15.954Z,100969.97
2023-04-25T09:43:58.767Z,100969.84
2023-04-25T09:48:07.130Z,100983.13
2023-04-25T09:52:31.316Z,100978.06
2023-04-25T09:56:56.090Z,100990.25
2023-04-25T10:01:02.984Z,101000.03
2023-04-25T10:05:15.704Z,101012.44
2023-04-25T10:09:21.086Z,101036.09
2023-04-25T10:13:25.908Z,101053.69
2023-04-25T10:17:30.092Z,101050.25
2023-04-25T10:21:35.746Z,101052.94
2023-04-25T10:25:39.584Z,101052.38
2023-04-25T10:29:44.269Z,101059.63
2023-04-25T10:33:48.697Z,101052.09
2023-04-25T10:38:06.731Z,101059.22
2023-04-25T10:42:10.340Z,101051.38
2023-04-25T10:46:20.777Z,101048.44
2023-04-25T10:50:40.055Z,101042.59
2023-04-25T10:54:44.610Z,101032.88
2023-04-25T10:58:51.266Z,101032.78
2023-04-25T11:02:59.931Z,101019.94
2023-04-25T11:07:12.693Z,101028.31
2023-04-25T11:11:16.593Z,101023.63
2023-04-25T11:15:19.684Z,101031.09
2023-04-25T11:19:22.787Z,101031.47
2023-04-25T11:23:28.054Z,101034.78
2023-04-25T11:27:30.750Z,101028.34
2023-04-25T11:31:33.518Z,101044.88
2023-04-25T11:35:36.451Z,101034.94
2023-04-25T11:39:40.616Z,101032.22
2023-04-25T11:43:45.152Z,101054.00
2023-04-25T11:47:48.054Z,101049.00
2023-04-25T11:51:51.011Z,101049.00
2023-04-25T11:55:55.695Z,101041.41
2023-04-25T12:00:07.967Z,101049.00
2023-04-25T12:04:17.562Z,101049.34
2023-04-25T12:08:20.962Z,101064.84
2023-04-25T12:12:29.259Z,101058.34
2023-04-25T12:16:32.269Z,101079.78
2023-04-25T12:20:35.850Z,101097.84
2023-04-25T12:24:39.436Z,101105.28
2023-04-25T12:28:48.036Z,101104.22
2023-04-25T12:32:51.295Z,101108.88
2023-04-25T12:36:55.663Z,101101.50
2023-04-25T12:40:58.999Z,101096.34
2023-04-25T12:45:03.233Z,101093.28
2023-04-25T12:49:17.577Z,101077.88
2023-04-25T12:53:22.827Z,101084.00
2023-04-25T12:57:25.666Z,101094.84
2023-04-25T13:01:30.958Z,101094.56
2023-04-25T13:05:34.364Z,101087.00
2023-04-25T13:09:39.284Z,101075.28
2023-04-25T13:13:42.407Z,101087.22
2023-04-25T13:17:46.578Z,101094.94
2023-04-25T13:21:49.812Z,101110.09
2023-04-25T13:25:52.862Z,101112.47
2023-04-25T13:29:57.860Z,101099.47
2023-04-25T13:34:01.857Z,101104.88
2023-04-25T13:38:05.486Z,101110.56
2023-04-25T13:42:09.626Z,101111.22
2023-04-25T13:46:29.974Z,101121.78
2023-04-25T13:50:41.226Z,101135.66
2023-04-25T13:54:44.130Z,101118.47
2023-04-25T13:58:48.382Z,101130.56
2023-04-25T14:02:51.730Z,101135.66
2023-04-25T14:06:56.582Z,101133.69
2023-04-25T14:10:59.490Z,101132.47
2023-04-25T14:15:02.452Z,101132.25
2023-04-25T14:19:05.649Z,101134.22
2023-04-25T14:23:09.788Z,101139.44
2023-04-25T14:27:12.831Z,101138.50
2023-04-25T14:31:16.426Z,101129.63
2023-04-25T14:35:19.796Z,101128.94
2023-04-25T14:39:24.901Z,101127.25
2023-04-25T14:43:28.040Z,101131.41
2023-04-25T14:47:30.840Z,101132.09
2023-04-25T14:51:33.658Z,101133.22
2023-04-25T14:55:38.072Z,101135.66
2023-04-25T14:59:41.365Z,101139.06
2023-04-25T15:03:45.310Z,101141.13
2023-04-25T15:07:48.713Z,101146.16
2023-04-25T15:11:53.380Z,101163.16
2023-04-25T15:16:03.634Z,101166.28
2023-04-25T15:20:31.725Z,101190.47
2023-04-25T15:25:04.777Z,101217.59
2023-04-25T15:29:36.651Z,101211.63
2023-04-25T15:33:47.384Z,101202.00
2023-04-25T15:38:00.472Z,101202.66
2023-04-25T15:42:04.811Z,101208.50
2023-04-25T15:46:08.943Z,101202.59
2023-04-25T15:50:12.596Z,101196.84
2023-04-25T15:54:40.040Z,101194.03
2023-04-25T15:58:52.589Z,101193.47
2023-04-25T16:02:58.547Z,101185.03
2023-04-25T16:07:01.646Z,101189.50
2023-04-25T16:11:19.918Z,101196.53
2023-04-25T16:15:35.802Z,101195.38
2023-04-25T16:19:41.412Z,101194.69
2023-04-25T16:23:44.675Z,101200.13
2023-04-25T16:27:47.918Z,101202.97
2023-04-25T16:31:51.159Z,101198.34
2023-04-25T16:35:55.861Z,101202.31
2023-04-25T16:39:59.353Z,101205.19
2023-04-25T16:44:02.949Z,101215.75
2023-04-25T16:48:05.791Z,101209.50
2023-04-25T16:52:10.896Z,101229.78
2023-04-25T16:56:13.766Z,101231.91
2023-04-25T17:00:18.182Z,101222.06
2023-04-25T17:04:21.380Z,101227.31
2023-04-25T17:08:26.030Z,101238.34
2023-04-25T17:12:29.515Z,101233.38
2023-04-25T17:16:36.911Z,101234.94
2023-04-25T17:20:40.086Z,101237.41
2023-04-25T17:24:44.677Z,101245.47
2023-04-25T17:28:49.460Z,101249.66
2023-04-25T17:32:52.962Z,101266.50
2023-04-25T17:36:55.986Z,101267.94
2023-04-25T17:41:15.587Z,101272.53
2023-04-25T17:45:19.120Z,101271.28
2023-04-25T17:49:22.519Z,101272.75
2023-04-25T17:53:26.526Z,101276.50
2023-04-25T17:57:31.623Z,101290.91
2023-04-25T18:01:34.725Z,101285.28
2023-04-25T18:05:38.554Z,101295.69
2023-04-25T18:09:41.533Z,101305.28
2023-04-25T18:13:46.219Z,101304.03
2023-04-25T18:17:49.510Z,101312.16
2023-04-25T18:21:54.361Z,101319.84
2023-04-25T18:25:57.508Z,101314.44
2023-04-25T18:30:01.922Z,101326.31
2023-04-25T18:34:05.122Z,101325.25
2023-04-25T18:38:09.760Z,101327.78
2023-04-25T18:42:22.224Z,101330.28
2023-04-25T18:46:26.462Z,101313.41
2023-04-25T18:50:29.354Z,101330.50
2023-04-25T18:54:32.815Z,101343.38
2023-04-25T18:58:36.804Z,101338.63
2023-04-25T19:02:42.232Z,101339.66
2023-04-25T19:06:46.588Z,101352.97
2023-04-25T19:10:50.186Z,101355.47
2023-04-25T19:14:53.301Z,101362.31
2023-04-25T19:19:01.809Z,101362.97
2023-04-25T19:23:06.102Z,101367.34
2023-04-25T19:27:09.813Z,101368.59
2023-04-25T19:31:13.370Z,101360.03
2023-04-25T19:35:18.471Z,101371.69
2023-04-25T19:39:22.883Z,101365.63
2023-04-25T19:43:26.104Z,101368.50
2023-04-25T19:47:29.258Z,101370.38
2023-04-25T19:51:34.706Z,101372.84
2023-04-25T19:55:38.743Z,101375.34
2023-04-25T19:59:47.846Z,101367.44
2023-04-25T20:03:52.552Z,101369.31
2023-04-25T20:07:58.081Z,101380.72
2023-04-25T20:12:02.826Z,101391.50
2023-04-25T20:16:06.080Z,101388.56
2023-04-25T20:20:22.089Z,101391.47
2023-04-25T20:24:27.415Z,101397.94
2023-04-25T20:28:32.130Z,101396.88
2023-04-25T20:32:35.826Z,101401.88
2023-04-25T20:36:38.760Z,101392.91
2023-04-25T20:40:50.899Z,101406.41
2023-04-25T20:45:13.562Z,101390.34
2023-04-25T20:49:34.180Z,101391.34
2023-04-25T20:54:03.691Z,101390.88
2023-04-25T20:58:51.263Z,101389.16
2023-04-25T21:03:19.068Z,101393.44
2023-04-25T21:07:28.610Z,101385.50
2023-04-25T21:11:32.765Z,101398.91
2023-04-25T21:15:36.321Z,101398.66
2023-04-25T21:19:41.055Z,101402.59
2023-04-25T21:23:44.479Z,101407.72
2023-04-25T21:27:49.579Z,101403.09
2023-04-25T21:31:52.924Z,101415.50
2023-04-25T21:35:57.282Z,101419.03
2023-04-25T21:40:00.178Z,101416.09
2023-04-25T21:44:03.104Z,101415.66
2023-04-25T21:48:05.826Z,101410.56
2023-04-25T21:52:10.283Z,101420.53
2023-04-25T21:56:13.352Z,101416.34
2023-04-25T22:00:24.514Z,101418.56
2023-04-25T22:04:28.181Z,101421.56
2023-04-25T22:08:32.840Z,101424.88
2023-04-25T22:12:36.444Z,101421.75
2023-04-25T22:16:40.295Z,101432.06
2023-04-25T22:20:44.001Z,101436.19
2023-04-25T22:24:49.733Z,101432.38
2023-04-25T22:28:52.990Z,101432.50
2023-04-25T22:32:56.952Z,101438.47
2023-04-25T22:36:59.828Z,101438.78
2023-04-25T22:41:05.176Z,101446.94
2023-04-25T22:45:09.387Z,101446.50
2023-04-25T22:49:12.242Z,101447.72
2023-04-25T22:53:16.264Z,101459.28
2023-04-25T22:57:21.387Z,101457.13
2023-04-25T23:01:27.787Z,101447.47
2023-04-25T23:05:32.522Z,101462.53
2023-04-25T23:09:35.857Z,101466.72
2023-04-25T23:13:40.219Z,101460.00
2023-04-25T23:17:43.360Z,101454.16
2023-04-25T23:21:46.347Z,101455.00
2023-04-25T23:25:49.040Z,101455.72
2023-04-25T23:29:56.482Z,101457.09
2023-04-25T23:33:59.290Z,101461.03
2023-04-25T23:38:02.266Z,101463.25
2023-04-25T23:42:05.641Z,101460.09
2023-04-25T23:46:10.077Z,101466.41
2023-04-25T23:50:13.092Z,101470.84
2023-04-25T23:54:15.848Z,101464.81
2023-04-25T23:58:18.551Z,101468.88
